Strona główna
METAR-TAF:

METAR-TAF

Lotnisko :

Port lotniczy Male

Male, Malediwy

Szerokość geograficzna: 04-12N, Długość geograficzna: 073-32E, wysokość: 2 m

Aktualna obserwacja pogody

Raport powstał 1 godzina i 23 minut temu, godzina 13:00 UTC
Wiatr 8 kt od zachodnio-południowy zachód
Temperatura 29°C
Wilgotność 74%
Ciśnienie 1010 hPa
Widzialność 10 km lub więcej
Mało chmury na wysokości 2000 ft
Rozproszone chmury na wysokości 28000 ft

METAR: VRMM 191300Z 24008KT 9999 FEW020 SCT280 29/24 Q1010 NOSIG

czas: 19:23 (14:23 UTC)

Prognoza

Raport powstał 21 godziny i 23 minut temu, godzina 17:00 UTC
Prognoza ważna od 19 godzina 12 UTC do 20 godzina 18 UTC
Wiatr 7 kt od zachodnio-południowy zachód
Widzialność 10 km lub więcej
Mało chmury na wysokości 1800 ft
Przejściowo
od 19 godzina 12 UTC do 19 godzina 18 UTC
Mało chmury na wysokości 1900 ft, Cumulonimbus.

TAF: VRMM 191700Z 1912/2018 24007KT 9999 FEW018 TEMPO 1912/1918 FEW019CB

Obserwacja i prognoza pogody dla ponad 4000 lotnisk (raport METAR i TAF).

Dostępne stacje oznaczono żółtymi i czerwonymi punktami na mapie.

Najedź kursorem aby zobaczyć nazwę stacji.

Kliknij aby zobaczyć obserwacje i prognozy pogody.

Aby zmienić mapę: kliknij na zielony przycisk z czarnym krzyżykiem, aby powiększyć; na zielony przycisk z myślnikiem, aby pomniejszyć; na zielone strzałki, aby przejść do map sąsiednich.


METAR-TAF: